Time;durP1;ratioP1;P1;durP2;ratioP2;P2;SDS_P1;SDS_P2;PMS_P1;PMS_P2;Temp;Humidity;BMP_temperature;BMP_pressure;BME280_temperature;BME280_humidity;BME280_pressure;Samples;Min_cycle;Max_cycle;Signal;HPM_P1;HPM_P2
2022/07/13 00:01:16;;;;;;;1.58;0.20;;;33.50;27.40;;;;;;5082264;28;20044;-50
2022/07/13 00:03:44;;;;;;;1.55;0.20;;;33.50;27.40;;;;;;5078600;28;20547;-53
2022/07/13 00:06:11;;;;;;;0.52;0.20;;;33.50;27.40;;;;;;5072748;28;20045;-51
2022/07/13 00:08:38;;;;;;;0.85;0.25;;;33.50;27.50;;;;;;5077433;28;20408;-50
2022/07/13 00:11:05;;;;;;;0.28;0.20;;;33.40;27.40;;;;;;5075204;28;20564;-49
2022/07/13 00:13:32;;;;;;;3.28;0.47;;;33.40;27.50;;;;;;5075219;28;20047;-53
2022/07/13 00:16:00;;;;;;;4.85;0.30;;;33.50;27.60;;;;;;5078940;28;20055;-50
2022/07/13 00:18:27;;;;;;;2.92;0.22;;;33.40;27.60;;;;;;5071437;28;20032;-50
2022/07/13 00:20:55;;;;;;;0.47;0.28;;;33.40;27.70;;;;;;5060432;28;20580;-49
2022/07/13 00:23:22;;;;;;;1.48;0.20;;;33.40;27.60;;;;;;5078897;28;20040;-50
2022/07/13 00:25:49;;;;;;;1.25;0.40;;;33.40;27.70;;;;;;5084144;28;20533;-53
2022/07/13 00:28:16;;;;;;;0.90;0.73;;;33.40;27.70;;;;;;5085451;28;20047;-49
2022/07/13 00:30:43;;;;;;;4.78;0.20;;;33.40;27.70;;;;;;5081586;28;20040;-50
2022/07/13 00:33:11;;;;;;;0.20;0.20;;;33.40;27.70;;;;;;5086201;28;20039;-54
2022/07/13 00:35:38;;;;;;;2.15;0.40;;;33.40;28.30;;;;;;5075386;28;20515;-49
2022/07/13 00:38:06;;;;;;;2.72;0.60;;;33.40;27.80;;;;;;5079655;28;20041;-51
2022/07/13 00:40:33;;;;;;;0.65;0.30;;;33.40;27.80;;;;;;5084163;28;20064;-50
2022/07/13 00:43:00;;;;;;;0.75;0.20;;;33.40;27.90;;;;;;5066042;28;20046;-49
2022/07/13 00:45:27;;;;;;;0.15;0.13;;;33.30;27.80;;;;;;5065922;28;20048;-48
2022/07/13 00:47:55;;;;;;;0.28;0.20;;;33.30;28.30;;;;;;5077700;28;20040;-51
2022/07/13 00:50:22;;;;;;;1.35;0.55;;;33.30;27.70;;;;;;5060276;28;20970;-48
2022/07/13 00:52:49;;;;;;;3.20;0.38;;;33.30;27.80;;;;;;5075633;28;20535;-53
2022/07/13 00:55:18;;;;;;;0.60;0.20;;;33.30;27.70;;;;;;5084014;28;20504;-53
2022/07/13 00:57:45;;;;;;;0.63;0.20;;;33.30;27.70;;;;;;5083549;28;20071;-53
2022/07/13 01:00:14;;;;;;;0.90;0.20;;;33.30;27.70;;;;;;5081376;28;20131;-50
2022/07/13 01:02:43;;;;;;;0.68;0.68;;;33.30;27.80;;;;;;5078201;28;20044;-49
2022/07/13 01:05:11;;;;;;;5.18;0.20;;;33.30;27.80;;;;;;5062342;28;20048;-49
2022/07/13 01:07:38;;;;;;;1.75;0.10;;;33.20;27.60;;;;;;5082464;28;20818;-49
2022/07/13 01:10:08;;;;;;;4.28;0.40;;;33.30;27.80;;;;;;5076835;28;20045;-49
2022/07/13 01:12:38;;;;;;;1.10;0.50;;;33.20;27.80;;;;;;5085698;28;20037;-49
2022/07/13 01:15:07;;;;;;;4.45;0.63;;;33.20;28.00;;;;;;5081279;28;20032;-52
2022/07/13 01:17:37;;;;;;;3.80;0.52;;;33.20;28.00;;;;;;5073023;28;20076;-51
2022/07/13 01:20:06;;;;;;;2.30;0.30;;;33.20;28.00;;;;;;5076825;28;20040;-52
2022/07/13 01:22:35;;;;;;;1.80;0.25;;;33.20;27.90;;;;;;5082758;28;20078;-52
2022/07/13 01:25:05;;;;;;;6.38;0.30;;;33.20;27.90;;;;;;5065045;28;20475;-52
2022/07/13 01:27:33;;;;;;;2.92;0.30;;;33.20;28.00;;;;;;5079049;28;20040;-50
2022/07/13 01:30:01;;;;;;;2.35;0.75;;;33.20;28.10;;;;;;5079798;28;20036;-53
2022/07/13 01:32:28;;;;;;;2.95;0.70;;;33.20;28.10;;;;;;5081332;28;20600;-57
2022/07/13 01:34:55;;;;;;;7.15;1.15;;;33.20;28.20;;;;;;5085306;28;20048;-54
2022/07/13 01:37:24;;;;;;;2.28;0.22;;;33.10;28.20;;;;;;5078741;28;20048;-53
2022/07/13 01:39:51;;;;;;;0.32;0.30;;;33.20;28.30;;;;;;5081082;28;20470;-54
2022/07/13 01:42:20;;;;;;;5.95;0.43;;;33.20;28.40;;;;;;5082438;28;20036;-49
2022/07/13 01:44:48;;;;;;;2.33;0.57;;;33.20;28.40;;;;;;5068679;28;20658;-52
2022/07/13 01:47:15;;;;;;;1.08;0.50;;;33.10;28.30;;;;;;5084650;28;20573;-50
2022/07/13 01:49:42;;;;;;;2.60;0.22;;;33.10;28.20;;;;;;5081810;28;20072;-50
2022/07/13 01:52:12;;;;;;;3.83;0.63;;;33.10;28.20;;;;;;5086609;28;20119;-49
2022/07/13 01:54:39;;;;;;;5.05;0.13;;;33.10;28.20;;;;;;5070103;28;20131;-51
2022/07/13 01:57:06;;;;;;;2.17;0.20;;;33.10;28.20;;;;;;5064417;28;20115;-51
2022/07/13 01:59:34;;;;;;;3.40;0.20;;;33.00;28.20;;;;;;5063467;28;20067;-52
2022/07/13 02:02:01;;;;;;;0.30;0.30;;;33.00;28.30;;;;;;5061211;28;20487;-51
2022/07/13 02:04:28;;;;;;;2.67;0.10;;;33.00;28.40;;;;;;5085230;28;20496;-52
2022/07/13 02:06:55;;;;;;;1.50;0.22;;;33.00;28.40;;;;;;5082792;28;20045;-51
2022/07/13 02:09:23;;;;;;;2.25;0.20;;;33.00;28.60;;;;;;5076659;28;20050;-53
2022/07/13 02:11:50;;;;;;;0.40;0.35;;;32.90;28.60;;;;;;5074049;28;20043;-50
2022/07/13 02:14:17;;;;;;;4.40;0.85;;;32.90;28.70;;;;;;5058565;28;20114;-54
2022/07/13 02:16:45;;;;;;;3.78;1.00;;;33.00;28.80;;;;;;5078414;28;20047;-51
2022/07/13 02:19:12;;;;;;;8.85;0.70;;;33.00;28.80;;;;;;5084074;28;20099;-54
2022/07/13 02:21:39;;;;;;;4.28;1.17;;;33.00;28.80;;;;;;5079710;28;20036;-54
2022/07/13 02:24:07;;;;;;;2.35;0.63;;;33.00;28.80;;;;;;5074739;28;20040;-50
2022/07/13 02:26:34;;;;;;;2.13;0.77;;;32.90;28.70;;;;;;5076512;28;20037;-53
2022/07/13 02:29:01;;;;;;;1.35;0.20;;;32.90;28.70;;;;;;5076234;28;20041;-52
2022/07/13 02:31:28;;;;;;;6.53;0.45;;;32.90;28.70;;;;;;5080288;28;20040;-50
2022/07/13 02:33:56;;;;;;;1.65;0.47;;;32.90;28.70;;;;;;5086175;28;20534;-49
2022/07/13 02:36:23;;;;;;;1.88;0.30;;;32.90;28.80;;;;;;5081878;28;20032;-48
2022/07/13 02:38:50;;;;;;;1.55;0.25;;;32.90;28.80;;;;;;5078632;28;20040;-48
2022/07/13 02:41:18;;;;;;;1.63;0.40;;;32.90;28.90;;;;;;5061345;28;20048;-53
2022/07/13 02:43:45;;;;;;;2.83;0.22;;;32.90;28.90;;;;;;5081751;28;20561;-53
2022/07/13 02:46:12;;;;;;;2.55;0.20;;;32.90;29.00;;;;;;5080931;28;20047;-55
2022/07/13 02:48:39;;;;;;;1.58;0.20;;;32.90;28.90;;;;;;5078529;28;20033;-51
2022/07/13 02:51:08;;;;;;;0.55;0.30;;;32.80;28.90;;;;;;5083089;28;20058;-50
2022/07/13 02:53:35;;;;;;;2.65;0.10;;;32.80;28.90;;;;;;5076158;28;20036;-49
2022/07/13 02:56:02;;;;;;;1.65;0.32;;;32.90;29.10;;;;;;5074873;28;20045;-49
2022/07/13 02:58:30;;;;;;;0.85;0.22;;;32.90;29.00;;;;;;5081995;28;20054;-53
2022/07/13 03:00:57;;;;;;;2.47;0.20;;;32.90;28.90;;;;;;5085050;28;20068;-49
2022/07/13 03:03:25;;;;;;;0.47;0.20;;;32.90;28.80;;;;;;5079181;28;20077;-49
2022/07/13 03:05:52;;;;;;;4.30;0.17;;;32.90;28.90;;;;;;5068758;28;20412;-54
2022/07/13 03:08:20;;;;;;;5.22;0.25;;;32.90;28.80;;;;;;5084352;28;20036;-55
2022/07/13 03:10:48;;;;;;;6.05;0.10;;;32.80;28.80;;;;;;5086909;28;20615;-49
2022/07/13 03:13:16;;;;;;;1.40;0.30;;;32.80;28.80;;;;;;5058357;28;20044;-50
2022/07/13 03:15:43;;;;;;;0.55;0.22;;;32.80;28.90;;;;;;5083222;28;20512;-52
2022/07/13 03:18:10;;;;;;;0.20;0.13;;;32.80;28.90;;;;;;5074516;28;20044;-51
2022/07/13 03:20:38;;;;;;;2.80;0.20;;;32.80;28.90;;;;;;5065452;28;20524;-48
2022/07/13 03:23:05;;;;;;;2.58;0.25;;;32.80;28.90;;;;;;5065911;28;20131;-49
2022/07/13 03:25:34;;;;;;;2.25;0.20;;;32.70;28.90;;;;;;5058365;28;20139;-50
2022/07/13 03:28:01;;;;;;;3.53;0.80;;;32.80;29.10;;;;;;5085079;28;20036;-49
2022/07/13 03:30:28;;;;;;;0.55;0.55;;;32.70;29.00;;;;;;5078176;28;20135;-51
2022/07/13 03:32:56;;;;;;;2.75;0.20;;;32.80;29.00;;;;;;5077573;28;20047;-50
2022/07/13 03:35:23;;;;;;;5.05;0.20;;;32.70;29.10;;;;;;5088342;28;20044;-49
2022/07/13 03:37:51;;;;;;;4.72;0.30;;;32.70;29.00;;;;;;5084529;28;20511;-51
2022/07/13 03:40:22;;;;;;;0.20;0.10;;;32.70;28.90;;;;;;5082650;28;20086;-54
2022/07/13 03:42:52;;;;;;;1.42;0.15;;;32.70;29.00;;;;;;5083245;28;20082;-51
2022/07/13 03:45:19;;;;;;;1.77;0.30;;;32.70;29.00;;;;;;5062000;28;20044;-51
2022/07/13 03:47:46;;;;;;;0.98;0.10;;;32.70;29.00;;;;;;5073930;28;20052;-49
2022/07/13 03:50:14;;;;;;;4.20;0.40;;;32.70;28.90;;;;;;5084433;28;20051;-52
2022/07/13 03:52:41;;;;;;;1.50;0.10;;;32.70;28.90;;;;;;5077695;28;20051;-53
2022/07/13 03:55:09;;;;;;;3.75;0.20;;;32.70;28.90;;;;;;5082802;28;20044;-49
2022/07/13 03:57:36;;;;;;;3.28;0.20;;;32.70;29.10;;;;;;5083184;28;20566;-50
2022/07/13 04:00:07;;;;;;;2.15;0.50;;;32.70;29.00;;;;;;5076882;28;20032;-50
2022/07/13 04:02:42;;;;;;;0.40;0.17;;;32.60;29.00;;;;;;5074611;28;20044;-49
2022/07/13 04:05:11;;;;;;;1.55;0.43;;;32.70;29.30;;;;;;5059190;28;20136;-52
2022/07/13 04:07:40;;;;;;;0.73;0.20;;;32.60;29.20;;;;;;5062821;28;20068;-53
2022/07/13 04:10:07;;;;;;;0.40;0.20;;;32.60;29.20;;;;;;5078371;28;20044;-48
2022/07/13 04:12:34;;;;;;;1.70;0.10;;;32.60;29.20;;;;;;5082949;28;20074;-48
2022/07/13 04:15:01;;;;;;;1.23;0.50;;;32.60;29.20;;;;;;5082272;28;20435;-51
2022/07/13 04:17:31;;;;;;;5.20;0.43;;;32.60;29.10;;;;;;5073773;28;20049;-49
2022/07/13 04:19:59;;;;;;;7.05;0.30;;;32.60;29.10;;;;;;5068283;28;20044;-53
2022/07/13 04:22:27;;;;;;;0.65;0.25;;;32.60;29.30;;;;;;5077767;28;20072;-49
2022/07/13 04:24:54;;;;;;;0.55;0.30;;;32.60;29.20;;;;;;5060675;28;20044;-48
2022/07/13 04:27:22;;;;;;;0.63;0.13;;;32.60;29.20;;;;;;5077593;28;20044;-49
2022/07/13 04:29:49;;;;;;;2.47;0.20;;;32.60;29.30;;;;;;5074216;28;20505;-53
2022/07/13 04:32:16;;;;;;;0.70;0.17;;;32.60;29.30;;;;;;5072463;28;20040;-51
2022/07/13 04:34:44;;;;;;;2.28;0.20;;;32.50;29.30;;;;;;5088455;28;20035;-51
2022/07/13 04:37:12;;;;;;;2.58;0.43;;;32.60;29.40;;;;;;5080595;28;20037;-52
2022/07/13 04:39:40;;;;;;;0.82;0.30;;;32.50;29.20;;;;;;5084113;28;20033;-51
2022/07/13 04:42:08;;;;;;;0.20;0.20;;;32.50;29.30;;;;;;5074410;28;20055;-51
2022/07/13 04:44:35;;;;;;;2.30;0.90;;;32.50;29.20;;;;;;5065236;28;20047;-51
2022/07/13 04:47:02;;;;;;;3.40;0.20;;;32.50;29.20;;;;;;5077256;28;20086;-53
2022/07/13 04:49:29;;;;;;;2.65;0.30;;;32.50;29.20;;;;;;5089693;28;20044;-51
2022/07/13 04:51:59;;;;;;;0.30;0.30;;;32.50;29.20;;;;;;5084288;28;20493;-54
2022/07/13 04:54:26;;;;;;;0.47;0.30;;;32.50;29.30;;;;;;5080914;28;20778;-49
2022/07/13 04:56:53;;;;;;;1.70;0.15;;;32.50;29.40;;;;;;5060328;28;20535;-52
2022/07/13 04:59:21;;;;;;;1.40;0.30;;;32.50;29.50;;;;;;5057770;28;20044;-54
2022/07/13 05:01:48;;;;;;;2.08;0.30;;;32.50;29.50;;;;;;5073463;28;20063;-49
2022/07/13 05:04:15;;;;;;;0.88;0.22;;;32.50;29.50;;;;;;5073271;28;20056;-52
2022/07/13 05:06:42;;;;;;;1.05;0.38;;;32.50;29.50;;;;;;5072744;28;20136;-54
2022/07/13 05:09:10;;;;;;;5.15;0.30;;;32.40;29.50;;;;;;5081110;28;20036;-59
2022/07/13 05:11:39;;;;;;;3.75;0.30;;;32.50;29.60;;;;;;5079797;28;20514;-54
2022/07/13 05:14:07;;;;;;;4.20;0.10;;;32.50;29.90;;;;;;5072466;28;20120;-50
2022/07/13 05:16:34;;;;;;;5.45;0.93;;;32.50;29.90;;;;;;5083204;28;20066;-57
2022/07/13 05:19:03;;;;;;;3.53;0.20;;;32.50;30.00;;;;;;5085923;28;20220;-60
2022/07/13 05:21:36;;;;;;;4.18;0.70;;;32.50;30.00;;;;;;5080083;28;20123;-58
2022/07/13 05:24:03;;;;;;;4.25;0.20;;;32.50;30.10;;;;;;5078383;28;20524;-57
2022/07/13 05:26:31;;;;;;;2.65;0.20;;;32.60;30.20;;;;;;5077842;28;20051;-56
2022/07/13 05:28:58;;;;;;;1.33;0.28;;;32.60;30.10;;;;;;5067795;28;20401;-59
2022/07/13 05:31:27;;;;;;;3.45;0.20;;;32.60;30.10;;;;;;5066399;28;20097;-59
2022/07/13 05:33:54;;;;;;;3.33;0.40;;;32.60;30.10;;;;;;5083146;28;20059;-60
2022/07/13 05:36:27;;;;;;;0.50;0.30;;;32.60;30.20;;;;;;5058365;28;20040;-60
2022/07/13 05:38:55;;;;;;;9.05;0.63;;;32.70;30.40;;;;;;5063117;28;20040;-60
2022/07/13 05:41:22;;;;;;;5.15;0.20;;;32.70;31.00;;;;;;5059195;28;20053;-47
2022/07/13 05:43:51;;;;;;;2.13;0.20;;;32.70;30.30;;;;;;5079683;28;20141;-51
2022/07/13 05:46:18;;;;;;;11.13;1.05;;;32.80;30.50;;;;;;5085908;28;20051;-61
2022/07/13 05:48:45;;;;;;;2.80;0.63;;;32.80;30.50;;;;;;5069157;28;20051;-64
2022/07/13 05:51:13;;;;;;;1.45;0.50;;;32.90;30.40;;;;;;5065112;28;20051;-53
2022/07/13 05:53:40;;;;;;;4.72;0.45;;;32.90;30.40;;;;;;5054105;28;20040;-48
2022/07/13 05:56:08;;;;;;;6.25;0.85;;;33.00;30.50;;;;;;5067398;28;20497;-48
2022/07/13 05:58:35;;;;;;;0.68;0.20;;;33.00;30.50;;;;;;5079516;28;20043;-52
2022/07/13 06:01:04;;;;;;;1.52;0.38;;;33.10;30.70;;;;;;5075033;28;20045;-50
2022/07/13 06:03:31;;;;;;;6.20;0.77;;;33.10;30.30;;;;;;5084484;28;20044;-57
2022/07/13 06:05:58;;;;;;;1.92;0.28;;;33.10;30.20;;;;;;5081219;28;20072;-52
2022/07/13 06:08:25;;;;;;;1.05;0.60;;;33.20;30.10;;;;;;5076284;28;20431;-52
2022/07/13 06:10:52;;;;;;;5.38;0.73;;;33.20;30.00;;;;;;5077937;28;20052;-61
2022/07/13 06:13:20;;;;;;;7.85;0.98;;;33.30;30.00;;;;;;5082745;28;20039;-61
2022/07/13 06:15:47;;;;;;;3.75;0.73;;;33.30;29.90;;;;;;5081526;28;20048;-62
2022/07/13 06:18:15;;;;;;;2.10;0.20;;;33.30;29.80;;;;;;5081940;28;20055;-60
2022/07/13 06:20:42;;;;;;;4.13;0.40;;;33.30;29.70;;;;;;5073698;28;20044;-58
2022/07/13 06:23:12;;;;;;;2.80;0.25;;;33.30;29.70;;;;;;5077242;28;20040;-60
2022/07/13 06:25:39;;;;;;;2.72;0.95;;;33.30;29.70;;;;;;5077021;28;20066;-66
2022/07/13 06:28:07;;;;;;;2.83;0.30;;;33.20;29.50;;;;;;5083625;28;20044;-71
2022/07/13 06:30:34;;;;;;;4.00;0.43;;;33.10;29.50;;;;;;5084243;28;20040;-68
2022/07/13 06:33:01;;;;;;;0.22;0.17;;;33.20;29.60;;;;;;5080181;28;20040;-73
2022/07/13 06:35:30;;;;;;;5.68;0.30;;;33.10;29.50;;;;;;5077594;28;20048;-70
2022/07/13 06:37:58;;;;;;;0.85;0.10;;;33.20;29.50;;;;;;5074217;28;20042;-57
2022/07/13 06:40:25;;;;;;;3.78;0.88;;;33.10;29.40;;;;;;5077590;28;20123;-52
2022/07/13 06:42:52;;;;;;;3.10;0.30;;;33.10;29.50;;;;;;5075825;28;20457;-50
2022/07/13 06:45:21;;;;;;;3.15;0.20;;;33.10;29.50;;;;;;5084424;28;20035;-53
2022/07/13 06:47:48;;;;;;;1.73;0.50;;;33.10;29.40;;;;;;5069412;28;20089;-54
2022/07/13 06:50:15;;;;;;;1.98;1.05;;;33.10;29.40;;;;;;5082916;28;20044;-54
2022/07/13 06:52:44;;;;;;;4.97;0.22;;;33.10;29.40;;;;;;5084384;28;20578;-55
2022/07/13 06:55:12;;;;;;;2.13;0.30;;;33.10;29.50;;;;;;5073623;28;20465;-54
2022/07/13 06:57:39;;;;;;;6.03;0.20;;;33.10;29.50;;;;;;5085424;28;20068;-53
2022/07/13 07:00:08;;;;;;;1.40;0.75;;;33.10;29.50;;;;;;5075323;28;20034;-52
2022/07/13 07:02:36;;;;;;;5.38;0.77;;;33.10;29.50;;;;;;5096289;28;20047;-53
2022/07/13 07:05:03;;;;;;;5.28;0.52;;;33.10;29.50;;;;;;5085313;28;20123;-54
2022/07/13 07:07:30;;;;;;;3.63;0.30;;;33.10;29.60;;;;;;5079891;28;20041;-64
2022/07/13 07:09:58;;;;;;;1.33;0.40;;;33.10;29.70;;;;;;5087855;28;20040;-58
2022/07/13 07:12:25;;;;;;;5.97;1.05;;;33.10;29.80;;;;;;5081900;28;20416;-60
2022/07/13 07:14:52;;;;;;;5.43;0.47;;;33.10;29.70;;;;;;5082843;28;20036;-63
2022/07/13 07:17:19;;;;;;;5.85;0.60;;;33.10;29.70;;;;;;5059305;28;20040;-61
2022/07/13 07:19:46;;;;;;;4.43;0.40;;;33.10;29.50;;;;;;5075339;28;20466;-61
2022/07/13 07:22:14;;;;;;;3.50;0.28;;;33.10;29.60;;;;;;5080610;28;20044;-60
2022/07/13 07:24:41;;;;;;;0.80;0.55;;;33.10;29.50;;;;;;5075031;28;20163;-60
2022/07/13 07:27:10;;;;;;;2.92;0.45;;;33.10;29.50;;;;;;5074894;28;20330;-59
2022/07/13 07:29:38;;;;;;;3.63;0.82;;;33.10;29.40;;;;;;5072103;28;20037;-56
2022/07/13 07:32:05;;;;;;;11.20;0.50;;;33.10;29.30;;;;;;5077808;28;20036;-59
2022/07/13 07:34:33;;;;;;;2.20;0.30;;;33.10;29.30;;;;;;5082883;28;20123;-59
2022/07/13 07:37:00;;;;;;;8.05;0.50;;;33.20;29.30;;;;;;5065433;28;20040;-62
2022/07/13 07:39:27;;;;;;;0.40;0.10;;;33.20;29.20;;;;;;5078783;28;20097;-55
2022/07/13 07:41:55;;;;;;;4.78;0.20;;;33.30;29.20;;;;;;5087208;28;20089;-53
2022/07/13 07:44:23;;;;;;;5.97;0.20;;;33.30;29.30;;;;;;5075811;28;20052;-56
2022/07/13 07:46:50;;;;;;;2.65;0.52;;;33.30;29.20;;;;;;5083295;28;20143;-66
2022/07/13 07:49:17;;;;;;;15.38;2.75;;;33.40;29.10;;;;;;5079632;28;20049;-68
2022/07/13 07:51:45;;;;;;;18.10;5.22;;;33.40;29.40;;;;;;5080996;28;20054;-64
2022/07/13 07:54:12;;;;;;;18.00;7.85;;;33.50;30.00;;;;;;5079877;28;20052;-64
2022/07/13 07:56:39;;;;;;;22.92;8.75;;;33.50;30.50;;;;;;5056794;28;20039;-67
2022/07/13 07:59:06;;;;;;;13.95;4.90;;;33.60;31.20;;;;;;5080932;28;20044;-68
2022/07/13 08:01:34;;;;;;;15.27;4.68;;;33.70;30.80;;;;;;5076951;28;20381;-68
2022/07/13 08:04:01;;;;;;;9.20;3.58;;;33.70;30.70;;;;;;5081824;28;20048;-71
2022/07/13 08:06:28;;;;;;;12.38;3.28;;;33.80;30.50;;;;;;5077516;28;20866;-68
2022/07/13 08:08:55;;;;;;;7.75;2.38;;;33.80;30.20;;;;;;5078218;28;20059;-68
2022/07/13 08:11:22;;;;;;;9.88;2.33;;;33.90;30.20;;;;;;5077707;28;20459;-67
2022/07/13 08:13:51;;;;;;;3.53;1.15;;;34.00;30.00;;;;;;5075675;28;20116;-65
2022/07/13 08:16:18;;;;;;;3.85;2.38;;;34.00;29.90;;;;;;5081280;28;20044;-67
2022/07/13 08:18:48;;;;;;;3.92;1.13;;;34.10;29.90;;;;;;5064268;28;20040;-68
2022/07/13 08:21:16;;;;;;;2.63;0.73;;;34.10;29.90;;;;;;5084213;28;20046;-68
2022/07/13 08:23:52;;;;;;;3.65;0.40;;;34.10;29.80;;;;;;5082994;28;20055;-60
2022/07/13 08:26:19;;;;;;;2.10;0.57;;;34.10;29.90;;;;;;5073640;28;20135;-60
2022/07/13 08:28:47;;;;;;;4.28;0.95;;;34.10;29.80;;;;;;5078163;28;20047;-60
2022/07/13 08:31:14;;;;;;;9.77;0.98;;;34.10;29.40;;;;;;5077787;28;20462;-60
2022/07/13 08:39:12;;;;;;;3.92;0.40;;;33.90;28.80;;;;;;5025023;28;20041;-68
2022/07/13 08:41:40;;;;;;;2.40;0.20;;;33.80;28.80;;;;;;5023209;28;20054;-68
2022/07/13 08:44:07;;;;;;;5.25;0.38;;;33.70;28.80;;;;;;5026930;28;20499;-68
2022/07/13 08:46:34;;;;;;;5.53;0.50;;;33.60;28.80;;;;;;5031613;28;20045;-68
2022/07/13 08:49:03;;;;;;;2.60;0.47;;;33.40;29.20;;;;;;5030613;28;20494;-68
2022/07/13 08:51:33;;;;;;;2.15;0.10;;;33.30;28.90;;;;;;5029239;28;20141;-67
2022/07/13 08:54:01;;;;;;;4.05;0.32;;;33.20;29.00;;;;;;5031264;28;20057;-67
2022/07/13 08:56:28;;;;;;;3.15;0.17;;;33.10;29.20;;;;;;5028194;28;20068;-67
2022/07/13 08:58:55;;;;;;;8.13;0.40;;;33.10;29.30;;;;;;5029470;28;20049;-67
2022/07/13 09:01:22;;;;;;;1.90;0.45;;;33.00;29.20;;;;;;5029749;28;20133;-67
2022/07/13 09:03:50;;;;;;;5.13;0.10;;;32.90;29.30;;;;;;5031451;28;20053;-69
2022/07/13 09:06:44;;;;;;;1.75;0.77;;;32.90;29.40;;;;;;5030079;28;20049;-69
2022/07/13 09:09:32;;;;;;;5.97;0.20;;;32.80;29.60;;;;;;5024152;28;20064;-68
2022/07/13 09:12:16;;;;;;;3.47;0.10;;;32.70;29.50;;;;;;5027366;28;20096;-69
2022/07/13 09:14:45;;;;;;;3.35;0.30;;;32.70;29.60;;;;;;5067029;28;20131;-69
2022/07/13 09:17:34;;;;;;;7.32;0.43;;;32.60;29.60;;;;;;5084058;28;20036;-68
2022/07/13 09:20:15;;;;;;;3.28;0.10;;;32.50;29.60;;;;;;5067428;28;20127;-68
2022/07/13 09:22:49;;;;;;;10.85;0.50;;;32.50;29.70;;;;;;5075314;28;20482;-67
2022/07/13 09:25:28;;;;;;;2.25;0.10;;;32.40;29.60;;;;;;5081695;28;20132;-67
2022/07/13 09:27:56;;;;;;;9.50;0.63;;;32.40;29.70;;;;;;5077706;28;20128;-67
2022/07/13 09:30:24;;;;;;;7.15;0.20;;;32.40;29.80;;;;;;5080943;28;20178;-67
2022/07/13 09:32:53;;;;;;;5.88;0.20;;;32.40;29.50;;;;;;5072580;28;20052;-67
2022/07/13 09:35:20;;;;;;;1.73;0.10;;;32.30;29.50;;;;;;5078096;28;20045;-67
2022/07/13 09:37:49;;;;;;;1.65;0.22;;;32.40;29.50;;;;;;5076553;28;20071;-67
2022/07/13 09:40:18;;;;;;;2.67;0.10;;;32.40;29.30;;;;;;5074009;28;20044;-67
2022/07/13 09:46:08;;;;;;;0.80;0.20;;;32.30;29.60;;;;;;5076563;28;20048;-67
2022/07/13 09:48:25;;;;;;;4.53;0.20;;;32.30;28.90;;;;;;5087636;28;20040;-68
2022/07/13 09:50:55;;;;;;;1.38;0.10;;;32.30;28.70;;;;;;5077133;28;20032;-68
2022/07/13 09:53:29;;;;;;;0.52;0.10;;;32.30;28.60;;;;;;5075955;28;20040;-68
2022/07/13 09:55:58;;;;;;;7.93;0.30;;;32.30;28.40;;;;;;5076676;28;20744;-69
2022/07/13 09:58:29;;;;;;;2.30;0.10;;;32.30;28.40;;;;;;5081016;28;20048;-67
2022/07/13 10:00:58;;;;;;;0.80;0.13;;;32.30;28.50;;;;;;5075409;28;20048;-67
2022/07/13 10:03:26;;;;;;;3.08;0.20;;;32.30;28.50;;;;;;5079425;28;20057;-67
2022/07/13 10:05:54;;;;;;;0.47;0.10;;;32.30;28.60;;;;;;5075928;28;20122;-67
2022/07/13 10:08:22;;;;;;;3.05;0.20;;;32.30;28.70;;;;;;5077380;28;20040;-68
2022/07/13 10:10:52;;;;;;;1.60;0.10;;;32.40;28.60;;;;;;5076213;28;20072;-67
2022/07/13 10:13:19;;;;;;;2.22;0.55;;;32.30;28.40;;;;;;5078173;28;20041;-67
2022/07/13 10:15:47;;;;;;;0.88;0.10;;;32.40;28.30;;;;;;5077854;28;20127;-68
2022/07/13 10:18:29;;;;;;;1.40;0.40;;;32.40;28.20;;;;;;5076146;28;20036;-67
2022/07/13 10:21:04;;;;;;;2.08;0.82;;;32.40;28.10;;;;;;5075939;28;20040;-66
2022/07/13 10:23:35;;;;;;;2.55;0.10;;;32.40;27.90;;;;;;5074709;28;20123;-66
2022/07/13 10:26:04;;;;;;;2.25;0.10;;;32.40;28.00;;;;;;5078912;28;20781;-66
2022/07/13 10:28:32;;;;;;;2.60;0.20;;;32.40;28.10;;;;;;5081203;28;20042;-68
2022/07/13 10:31:29;;;;;;;1.60;0.10;;;32.50;28.00;;;;;;5082781;28;20694;-68
2022/07/13 10:33:57;;;;;;;3.30;0.10;;;32.50;28.60;;;;;;5081057;28;20105;-68
2022/07/13 10:37:00;;;;;;;0.93;0.22;;;32.50;29.00;;;;;;5076448;28;20098;-67
2022/07/13 10:39:28;;;;;;;0.77;0.10;;;32.50;29.20;;;;;;5069840;28;20044;-68
2022/07/13 10:41:57;;;;;;;2.45;0.43;;;32.50;28.70;;;;;;5073453;28;20035;-68
2022/07/13 10:44:36;;;;;;;0.25;0.10;;;32.60;28.60;;;;;;5077995;28;20042;-68
2022/07/13 10:47:06;;;;;;;0.43;0.10;;;32.60;28.90;;;;;;5069914;28;20106;-66
2022/07/13 10:49:44;;;;;;;0.10;0.10;;;32.60;29.30;;;;;;5080879;28;20131;-68
2022/07/13 10:52:49;;;;;;;2.08;0.10;;;32.60;29.20;;;;;;5076087;28;20083;-68
2022/07/13 10:55:30;;;;;;;2.05;0.10;;;32.70;29.50;;;;;;5072640;28;20037;-68
2022/07/13 10:57:57;;;;;;;0.73;0.10;;;32.70;29.60;;;;;;5076614;28;20043;-68
2022/07/13 11:00:43;;;;;;;1.27;0.43;;;32.60;29.60;;;;;;5073815;28;20048;-68
2022/07/13 11:03:28;;;;;;;3.25;0.10;;;32.70;29.00;;;;;;5076459;28;20097;-68
2022/07/13 11:06:06;;;;;;;0.40;0.10;;;32.70;29.50;;;;;;5064648;28;20139;-66
2022/07/13 11:08:33;;;;;;;1.10;0.20;;;32.70;29.60;;;;;;5071997;28;20511;-66
2022/07/13 11:11:11;;;;;;;3.25;0.10;;;32.70;29.70;;;;;;5073344;28;20055;-68
2022/07/13 11:13:39;;;;;;;0.10;0.10;;;32.70;29.80;;;;;;5072095;28;20396;-68
2022/07/13 11:16:07;;;;;;;0.10;0.10;;;32.70;29.80;;;;;;5079167;28;20145;-68
2022/07/13 11:18:37;;;;;;;1.10;0.10;;;32.70;29.80;;;;;;5075394;28;20120;-68
2022/07/13 11:21:05;;;;;;;2.08;0.10;;;32.70;29.80;;;;;;5073954;28;20044;-68
2022/07/13 11:26:43;;;;;;;1.27;0.10;;;32.80;29.90;;;;;;5075156;28;20045;-66
2022/07/13 11:29:18;;;;;;;0.20;0.10;;;32.90;29.90;;;;;;5068331;28;20041;-67
2022/07/13 11:31:46;;;;;;;0.67;0.10;;;32.90;30.00;;;;;;5077740;28;20086;-66
2022/07/13 11:34:14;;;;;;;1.05;0.10;;;32.90;29.90;;;;;;5078317;28;20310;-68
2022/07/13 11:36:42;;;;;;;1.48;0.10;;;33.00;30.00;;;;;;5073667;28;20052;-66
2022/07/13 11:39:22;;;;;;;4.22;0.43;;;32.90;29.90;;;;;;5077954;28;20044;-68
2022/07/13 11:41:51;;;;;;;0.10;0.10;;;33.00;29.90;;;;;;5069104;28;20076;-68
2022/07/13 11:44:18;;;;;;;0.10;0.10;;;33.00;29.90;;;;;;5075605;28;20536;-68
2022/07/13 11:46:47;;;;;;;2.30;0.10;;;33.10;30.00;;;;;;5087652;28;20048;-68
2022/07/13 11:49:15;;;;;;;1.90;0.10;;;33.10;29.90;;;;;;5058384;28;20145;-68
2022/07/13 11:51:44;;;;;;;0.00;0.00;;;33.10;29.90;;;;;;5077346;28;20044;-68
2022/07/13 11:54:13;;;;;;;2.28;0.10;;;33.10;29.90;;;;;;5075486;28;20038;-67
2022/07/13 11:56:47;;;;;;;0.40;0.10;;;33.20;30.00;;;;;;5072197;28;20790;-68
2022/07/13 11:59:14;;;;;;;2.25;0.10;;;33.20;30.00;;;;;;5073544;28;20127;-68
2022/07/13 12:01:50;;;;;;;0.73;0.20;;;33.30;30.00;;;;;;5077617;28;20060;-68
2022/07/13 12:04:25;;;;;;;0.10;0.10;;;33.30;30.00;;;;;;5071107;28;20056;-68
2022/07/13 12:07:08;;;;;;;0.10;0.10;;;33.30;30.00;;;;;;5079472;28;20071;-68
2022/07/13 12:09:35;;;;;;;2.00;0.40;;;33.40;30.00;;;;;;5073381;28;20044;-70
2022/07/13 12:12:03;;;;;;;2.47;0.10;;;33.40;30.00;;;;;;5067046;28;20047;-68
2022/07/13 12:14:30;;;;;;;0.95;0.10;;;33.40;30.00;;;;;;5066495;28;20048;-68
2022/07/13 12:16:57;;;;;;;3.00;0.10;;;33.50;30.00;;;;;;5076038;28;20072;-68
2022/07/13 12:19:25;;;;;;;1.45;0.20;;;33.50;30.00;;;;;;5070964;28;20049;-68
2022/07/13 12:21:57;;;;;;;1.75;0.10;;;33.50;29.90;;;;;;5077632;28;20522;-68
2022/07/13 12:24:25;;;;;;;1.45;0.10;;;33.60;30.00;;;;;;5076661;28;20044;-68
2022/07/13 12:26:53;;;;;;;3.40;0.10;;;33.70;30.00;;;;;;5075132;28;20048;-68
2022/07/13 12:29:30;;;;;;;0.10;0.10;;;33.70;30.00;;;;;;5070399;28;20610;-69
2022/07/13 12:31:57;;;;;;;1.40;0.10;;;33.80;30.00;;;;;;5075512;28;20036;-69
2022/07/13 12:34:26;;;;;;;0.10;0.03;;;33.80;30.00;;;;;;5078666;28;20037;-69
2022/07/13 12:36:53;;;;;;;0.10;0.10;;;33.90;30.00;;;;;;5079764;28;20044;-68
2022/07/13 12:39:21;;;;;;;0.10;0.10;;;33.90;29.90;;;;;;5083015;28;20036;-68
2022/07/13 12:41:56;;;;;;;1.75;0.10;;;33.90;29.90;;;;;;5078663;28;20052;-68
2022/07/13 12:44:27;;;;;;;;;;;34.00;29.90;;;;;;5075620;28;20044;-68
2022/07/13 12:46:56;;;;;;;0.10;0.10;;;34.00;29.90;;;;;;5087332;28;19924;-67
2022/07/13 12:49:29;;;;;;;0.43;0.20;;;34.10;30.00;;;;;;5078715;28;20130;-68
2022/07/13 12:52:03;;;;;;;1.10;0.30;;;34.10;30.30;;;;;;5074477;28;20097;-68
2022/07/13 12:54:48;;;;;;;0.10;0.07;;;34.20;29.90;;;;;;5074525;28;20044;-67
2022/07/13 12:57:17;;;;;;;2.03;0.15;;;34.30;30.30;;;;;;5076113;28;20393;-67
2022/07/13 13:00:05;;;;;;;0.10;0.10;;;34.30;29.80;;;;;;5069615;28;20040;-67
2022/07/13 13:02:32;;;;;;;2.75;0.13;;;34.40;29.80;;;;;;5070031;28;20124;-67
2022/07/13 13:05:01;;;;;;;1.00;0.45;;;34.40;29.80;;;;;;5072094;28;20057;-67
2022/07/13 13:07:28;;;;;;;0.60;0.10;;;34.50;29.80;;;;;;5071170;28;20064;-66
2022/07/13 13:09:55;;;;;;;1.27;0.10;;;34.60;29.70;;;;;;5074394;28;20063;-67